createdAt,value
2018-12-27T00:00:35.795Z,31.47
2018-12-27T00:03:04.367Z,24.70
2018-12-27T00:05:32.934Z,21.00
2018-12-27T00:08:01.165Z,25.40
2018-12-27T00:10:29.696Z,21.40
2018-12-27T00:12:58.270Z,25.43
2018-12-27T00:15:26.870Z,23.17
2018-12-27T00:17:55.111Z,22.03
2018-12-27T00:20:23.621Z,22.93
2018-12-27T00:22:52.196Z,21.77
2018-12-27T00:25:21.601Z,25.17
2018-12-27T00:27:50.184Z,23.37
2018-12-27T00:30:19.075Z,24.30
2018-12-27T00:32:47.967Z,22.87
2018-12-27T00:35:16.955Z,22.00
2018-12-27T00:37:45.838Z,21.30
2018-12-27T00:40:14.386Z,19.33
2018-12-27T00:42:43.212Z,23.37
2018-12-27T00:45:11.777Z,25.20
2018-12-27T00:47:42.933Z,27.23
2018-12-27T00:50:11.852Z,24.07
2018-12-27T00:52:40.721Z,23.70
2018-12-27T00:55:09.670Z,23.50
2018-12-27T00:57:38.506Z,23.13
2018-12-27T01:00:07.550Z,22.10
2018-12-27T01:02:36.875Z,26.90
2018-12-27T01:05:07.118Z,25.10
2018-12-27T01:07:36.419Z,20.90
2018-12-27T01:10:04.990Z,22.30
2018-12-27T01:12:33.890Z,22.10
2018-12-27T01:15:02.770Z,25.03
2018-12-27T01:17:31.657Z,23.40
2018-12-27T01:20:00.573Z,25.50
2018-12-27T01:22:29.441Z,24.63
2018-12-27T01:24:58.319Z,23.40
2018-12-27T01:27:27.230Z,22.43
2018-12-27T01:29:56.123Z,25.63
2018-12-27T01:32:25.019Z,20.73
2018-12-27T01:34:54.097Z,27.03
2018-12-27T01:37:22.997Z,22.17
2018-12-27T01:39:51.552Z,21.77
2018-12-27T01:42:20.088Z,24.70
2018-12-27T01:44:48.636Z,23.33
2018-12-27T01:47:17.183Z,28.43
2018-12-27T01:49:45.732Z,26.57
2018-12-27T01:52:14.582Z,22.00
2018-12-27T01:54:44.596Z,26.03
2018-12-27T01:57:13.502Z,24.80
2018-12-27T01:59:42.379Z,26.10
2018-12-27T02:02:11.075Z,21.77
2018-12-27T02:04:39.951Z,21.73
2018-12-27T02:07:08.943Z,22.43
2018-12-27T02:09:37.557Z,23.87
2018-12-27T02:12:06.421Z,20.80
2018-12-27T02:14:35.306Z,26.50
2018-12-27T02:17:04.197Z,22.60
2018-12-27T02:19:32.822Z,23.00
2018-12-27T02:22:01.769Z,22.20
2018-12-27T02:24:31.477Z,20.97
2018-12-27T02:27:02.612Z,21.83
2018-12-27T02:29:31.198Z,21.87
2018-12-27T02:32:00.101Z,19.20
2018-12-27T02:34:28.990Z,19.07
2018-12-27T02:36:57.540Z,20.27
2018-12-27T02:39:26.080Z,20.53
2018-12-27T02:41:54.956Z,20.60
2018-12-27T02:44:23.827Z,19.83
2018-12-27T02:46:52.728Z,19.50
2018-12-27T02:49:21.521Z,23.77
2018-12-27T02:51:50.408Z,21.80
2018-12-27T02:54:18.947Z,24.40
2018-12-27T02:56:47.889Z,22.30
2018-12-27T02:59:16.761Z,22.50
2018-12-27T03:01:45.287Z,20.20
2018-12-27T03:04:14.134Z,23.73
2018-12-27T03:06:43.018Z,20.07
2018-12-27T03:09:11.927Z,21.07
2018-12-27T03:11:40.801Z,18.63
2018-12-27T03:14:09.697Z,21.17
2018-12-27T03:16:38.600Z,20.50
2018-12-27T03:19:07.143Z,19.03
2018-12-27T03:21:36.055Z,20.83
2018-12-27T03:24:04.596Z,24.40
2018-12-27T03:26:33.518Z,23.63
2018-12-27T03:29:02.141Z,20.40
2018-12-27T03:31:31.269Z,22.00
2018-12-27T03:33:59.799Z,18.47
2018-12-27T03:36:28.354Z,21.70
2018-12-27T03:38:58.367Z,19.53
2018-12-27T03:41:27.276Z,18.83
2018-12-27T03:43:56.159Z,21.70
2018-12-27T03:46:25.053Z,19.00
2018-12-27T03:48:53.602Z,19.00
2018-12-27T03:51:22.534Z,26.77
2018-12-27T03:53:51.074Z,18.20
2018-12-27T03:56:19.990Z,17.47
2018-12-27T03:58:49.104Z,18.63
2018-12-27T04:01:17.995Z,20.73
2018-12-27T04:03:46.887Z,21.93
2018-12-27T04:06:15.758Z,20.00
2018-12-27T04:08:44.638Z,18.50
2018-12-27T04:11:13.209Z,18.67
2018-12-27T04:13:42.119Z,20.30
2018-12-27T04:16:10.702Z,20.03
2018-12-27T04:18:39.288Z,18.87
2018-12-27T04:21:07.518Z,19.10
2018-12-27T04:23:35.746Z,18.67
2018-12-27T04:26:04.306Z,18.93
2018-12-27T04:28:32.897Z,17.57
2018-12-27T04:31:01.480Z,16.00
2018-12-27T04:33:29.963Z,16.60
2018-12-27T04:35:58.196Z,15.63
2018-12-27T04:38:26.727Z,16.07
2018-12-27T04:40:55.327Z,18.13
2018-12-27T04:43:23.682Z,18.53
2018-12-27T04:45:52.250Z,16.53
2018-12-27T04:48:20.746Z,20.93
2018-12-27T04:50:49.322Z,17.63
2018-12-27T04:53:17.548Z,16.73
2018-12-27T04:55:46.076Z,22.90
2018-12-27T04:58:14.658Z,17.07
2018-12-27T05:00:42.908Z,18.60
2018-12-27T05:03:11.451Z,17.57
2018-12-27T05:05:40.020Z,17.93
2018-12-27T05:08:08.597Z,18.40
2018-12-27T05:10:37.082Z,18.40
2018-12-27T05:13:05.299Z,17.50
2018-12-27T05:15:33.819Z,19.33
2018-12-27T05:18:02.416Z,17.83
2018-12-27T05:20:31.186Z,17.30
2018-12-27T05:22:59.765Z,17.50
2018-12-27T05:25:28.347Z,18.10
2018-12-27T05:27:56.932Z,18.17
2018-12-27T05:30:25.415Z,20.97
2018-12-27T05:32:53.993Z,18.10
2018-12-27T05:35:22.576Z,16.57
2018-12-27T05:37:50.774Z,19.17
2018-12-27T05:40:18.984Z,18.17
2018-12-27T05:42:47.507Z,13.80
2018-12-27T05:45:15.803Z,17.70
2018-12-27T05:47:44.364Z,16.70
2018-12-27T05:50:12.746Z,17.60
2018-12-27T05:52:41.331Z,16.60
2018-12-27T05:55:11.031Z,16.80
2018-12-27T05:57:39.613Z,18.60
2018-12-27T06:00:07.832Z,17.33
2018-12-27T06:02:36.378Z,18.90
2018-12-27T06:05:04.980Z,16.07
2018-12-27T06:07:34.980Z,17.73
2018-12-27T06:10:03.183Z,14.80
2018-12-27T06:12:31.423Z,17.87
2018-12-27T06:14:59.995Z,15.27
2018-12-27T06:17:28.480Z,14.93
2018-12-27T06:19:57.060Z,14.73
2018-12-27T06:22:25.272Z,16.27
2018-12-27T06:24:56.181Z,18.83
2018-12-27T06:27:24.770Z,17.43
2018-12-27T06:29:53.338Z,18.43
2018-12-27T06:32:21.919Z,19.63
2018-12-27T06:34:50.531Z,17.23
2018-12-27T06:37:19.123Z,15.30
2018-12-27T06:39:49.581Z,18.57
2018-12-27T06:42:18.093Z,18.83
2018-12-27T06:44:46.692Z,19.30
2018-12-27T06:47:17.959Z,42.90
2018-12-27T06:49:46.199Z,24.17
2018-12-27T06:52:14.781Z,15.87
2018-12-27T06:54:43.285Z,15.07
2018-12-27T06:57:11.844Z,16.50
2018-12-27T06:59:40.435Z,13.73
2018-12-27T07:02:09.005Z,13.80
2018-12-27T07:04:37.205Z,21.80
2018-12-27T07:07:07.305Z,15.80
2018-12-27T07:09:35.522Z,31.77
2018-12-27T07:12:04.063Z,22.70
2018-12-27T07:14:32.249Z,18.20
2018-12-27T07:17:00.808Z,15.57
2018-12-27T07:19:29.431Z,17.70
2018-12-27T07:21:57.970Z,14.83
2018-12-27T07:24:26.560Z,16.70
2018-12-27T07:26:55.162Z,17.87
2018-12-27T07:29:23.727Z,19.37
2018-12-27T07:31:51.921Z,16.50
2018-12-27T07:34:20.157Z,17.33
2018-12-27T07:36:48.765Z,17.40
2018-12-27T07:39:17.341Z,14.97
2018-12-27T07:41:45.957Z,15.30
2018-12-27T07:44:14.520Z,15.73
2018-12-27T07:46:42.743Z,14.20
2018-12-27T07:49:11.256Z,13.20
2018-12-27T07:51:39.873Z,13.33
2018-12-27T07:54:08.433Z,13.23
2018-12-27T07:56:37.016Z,15.93
2018-12-27T07:59:05.588Z,13.67
2018-12-27T08:01:33.907Z,14.43
2018-12-27T08:04:02.460Z,17.50
2018-12-27T08:06:31.032Z,13.07
2018-12-27T08:08:59.643Z,16.03
2018-12-27T08:11:28.197Z,13.33
2018-12-27T08:13:56.778Z,12.40
2018-12-27T08:16:25.799Z,15.60
2018-12-27T08:18:53.987Z,13.13
2018-12-27T08:21:22.218Z,17.20
2018-12-27T08:23:53.979Z,15.43
2018-12-27T08:26:23.066Z,15.67
2018-12-27T08:28:52.561Z,17.97
2018-12-27T08:31:21.060Z,13.10
2018-12-27T08:33:49.643Z,13.10
2018-12-27T08:36:17.865Z,15.57
2018-12-27T08:38:46.407Z,22.50
2018-12-27T08:41:14.989Z,12.03
2018-12-27T08:43:43.562Z,13.20
2018-12-27T08:46:12.168Z,13.73
2018-12-27T08:48:40.835Z,14.27
2018-12-27T08:51:09.418Z,12.00
2018-12-27T08:53:37.997Z,10.70
2018-12-27T08:56:06.596Z,19.40
2018-12-27T08:58:35.161Z,15.13
2018-12-27T09:01:03.368Z,14.33
2018-12-27T09:03:31.571Z,23.77
2018-12-27T09:06:00.197Z,12.53
2018-12-27T09:08:28.811Z,12.60
2018-12-27T09:10:57.354Z,10.10
2018-12-27T09:13:25.942Z,14.47
2018-12-27T09:15:54.525Z,13.97
2018-12-27T09:18:23.018Z,13.53
2018-12-27T09:20:51.219Z,17.53
2018-12-27T09:23:19.753Z,13.90
2018-12-27T09:25:48.341Z,12.53
2018-12-27T09:28:16.535Z,12.43
2018-12-27T09:30:45.094Z,14.10
2018-12-27T09:33:13.714Z,11.17
2018-12-27T09:35:42.290Z,16.40
2018-12-27T09:38:10.859Z,124.30
2018-12-27T09:40:39.422Z,14.53
2018-12-27T09:43:07.618Z,10.73
2018-12-27T09:45:36.183Z,13.47
2018-12-27T09:48:04.760Z,14.10
2018-12-27T09:50:32.985Z,12.80
2018-12-27T09:53:01.548Z,12.20
2018-12-27T09:55:29.751Z,13.50
2018-12-27T09:57:59.507Z,14.50
2018-12-27T10:00:28.090Z,11.27
2018-12-27T10:02:56.319Z,12.07
2018-12-27T10:05:24.533Z,14.23
2018-12-27T10:07:57.568Z,12.27
2018-12-27T10:10:24.704Z,14.10
2018-12-27T10:12:52.901Z,11.27
2018-12-27T10:15:21.425Z,14.07
2018-12-27T10:17:49.620Z,12.80
2018-12-27T10:20:17.835Z,13.37
2018-12-27T10:22:46.410Z,12.23
2018-12-27T10:25:14.678Z,16.63
2018-12-27T10:27:43.120Z,14.80
2018-12-27T10:30:11.310Z,11.83
2018-12-27T10:32:39.525Z,12.70
2018-12-27T10:35:08.590Z,14.33
2018-12-27T10:37:37.134Z,15.77
2018-12-27T10:40:08.600Z,12.53
2018-12-27T10:42:37.167Z,14.27
2018-12-27T10:45:08.072Z,18.93
2018-12-27T10:47:36.698Z,15.20
2018-12-27T10:50:08.170Z,13.20
2018-12-27T10:52:36.683Z,13.47
2018-12-27T10:55:06.962Z,17.47
2018-12-27T10:57:35.539Z,14.87
2018-12-27T11:00:06.650Z,16.57
2018-12-27T11:02:35.160Z,11.17
2018-12-27T11:05:03.943Z,13.80
2018-12-27T11:07:32.152Z,14.57
2018-12-27T11:10:00.370Z,13.70
2018-12-27T11:12:29.088Z,11.17
2018-12-27T11:14:57.658Z,17.00
2018-12-27T11:17:25.922Z,11.27
2018-12-27T11:19:54.398Z,13.17
2018-12-27T11:22:22.997Z,11.57
2018-12-27T11:24:51.656Z,13.50
2018-12-27T11:27:20.256Z,14.30
2018-12-27T11:29:48.470Z,13.97
2018-12-27T11:32:17.023Z,11.40
2018-12-27T11:34:45.241Z,10.97
2018-12-27T11:37:13.767Z,15.30
2018-12-27T11:39:42.350Z,14.10
2018-12-27T11:42:10.577Z,12.60
2018-12-27T11:44:39.091Z,11.30
2018-12-27T11:47:07.301Z,12.83
2018-12-27T11:49:35.855Z,16.47
2018-12-27T11:52:04.367Z,12.63
2018-12-27T11:54:32.592Z,14.10
2018-12-27T11:57:00.776Z,13.87
2018-12-27T11:59:29.404Z,12.80
2018-12-27T12:01:58.051Z,12.03
2018-12-27T12:04:26.641Z,16.20
2018-12-27T12:06:55.120Z,12.50
2018-12-27T12:09:23.729Z,13.40
2018-12-27T12:11:52.281Z,12.53
2018-12-27T12:14:20.467Z,11.70
2018-12-27T12:16:49.145Z,13.43
2018-12-27T12:19:17.723Z,12.90
2018-12-27T12:21:46.405Z,11.03
2018-12-27T12:24:14.636Z,12.83
2018-12-27T12:26:42.869Z,17.50
2018-12-27T12:29:11.091Z,10.97
2018-12-27T12:31:39.616Z,13.70
2018-12-27T12:34:08.023Z,13.07
2018-12-27T12:36:36.291Z,13.43
2018-12-27T12:39:05.986Z,12.33
2018-12-27T12:41:34.546Z,10.90
2018-12-27T12:44:03.546Z,13.77
2018-12-27T12:46:32.148Z,12.90
2018-12-27T12:49:02.350Z,12.80
2018-12-27T12:51:32.989Z,14.30
2018-12-27T12:54:01.255Z,9.10
2018-12-27T12:56:29.999Z,13.57
2018-12-27T12:58:58.534Z,10.67
2018-12-27T13:01:28.255Z,11.63
2018-12-27T13:03:56.826Z,10.57
2018-12-27T13:06:25.022Z,9.10
2018-12-27T13:08:53.574Z,13.87
2018-12-27T13:11:22.142Z,11.03
2018-12-27T13:13:50.766Z,11.77
2018-12-27T13:16:18.972Z,9.67
2018-12-27T13:18:47.558Z,11.60
2018-12-27T13:21:15.790Z,10.00
2018-12-27T13:23:44.368Z,9.77
2018-12-27T13:26:13.847Z,11.97
2018-12-27T13:28:42.045Z,9.20
2018-12-27T13:31:10.605Z,11.33
2018-12-27T13:33:39.205Z,12.33
2018-12-27T13:36:07.773Z,8.80
2018-12-27T13:38:35.990Z,9.50
2018-12-27T13:41:04.177Z,9.67
2018-12-27T13:43:32.807Z,12.20
2018-12-27T13:46:01.387Z,8.30
2018-12-27T13:48:29.973Z,10.90
2018-12-27T13:50:58.176Z,13.47
2018-12-27T13:53:26.750Z,10.13
2018-12-27T13:55:54.976Z,9.80
2018-12-27T13:58:23.203Z,12.20
2018-12-27T14:00:51.754Z,10.47
2018-12-27T14:03:20.339Z,9.67
2018-12-27T14:18:35.232Z,9.73
2018-12-27T14:21:03.691Z,9.83
2018-12-27T14:23:32.292Z,10.80
2018-12-27T14:26:00.785Z,9.40
2018-12-27T14:28:29.046Z,10.13
2018-12-27T14:30:57.542Z,11.63
2018-12-27T14:33:25.779Z,9.30
2018-12-27T14:35:54.286Z,10.73
2018-12-27T14:38:22.855Z,14.50
2018-12-27T14:40:51.101Z,9.60
2018-12-27T14:43:19.585Z,10.13
2018-12-27T14:45:47.794Z,10.10
2018-12-27T14:48:16.021Z,10.33
2018-12-27T14:50:44.483Z,12.80
2018-12-27T14:53:12.961Z,10.53
2018-12-27T14:55:41.180Z,11.57
2018-12-27T14:58:09.417Z,10.53
2018-12-27T15:00:39.106Z,10.10
2018-12-27T15:03:07.591Z,12.60
2018-12-27T15:05:36.096Z,12.27
2018-12-27T15:08:04.543Z,18.60
2018-12-27T15:10:33.094Z,9.40
2018-12-27T15:13:01.599Z,9.90
2018-12-27T15:15:30.067Z,12.20
2018-12-27T15:17:58.620Z,12.97
2018-12-27T15:20:27.088Z,15.53
2018-12-27T15:22:55.291Z,12.87
2018-12-27T15:25:23.792Z,11.73
2018-12-27T15:27:52.314Z,11.50
2018-12-27T15:30:20.836Z,10.70
2018-12-27T15:32:49.047Z,12.17
2018-12-27T15:35:17.495Z,12.10
2018-12-27T15:37:45.987Z,9.53
2018-12-27T15:40:14.442Z,11.40
2018-12-27T15:42:43.021Z,12.20
2018-12-27T15:45:11.492Z,12.80
2018-12-27T15:47:40.046Z,9.17
2018-12-27T15:50:08.782Z,10.23
2018-12-27T15:52:37.285Z,12.60
2018-12-27T15:55:05.470Z,10.77
2018-12-27T15:57:33.995Z,10.83
2018-12-27T16:00:02.546Z,12.40
2018-12-27T16:02:30.740Z,14.10
2018-12-27T16:04:59.230Z,10.13
2018-12-27T16:07:27.438Z,11.90
2018-12-27T16:09:55.971Z,21.03
2018-12-27T16:12:24.495Z,26.80
2018-12-27T16:14:53.020Z,21.93
2018-12-27T16:17:21.515Z,24.70
2018-12-27T16:19:50.017Z,14.40
2018-12-27T16:22:18.488Z,13.33
2018-12-27T16:24:46.969Z,12.27
2018-12-27T16:27:15.467Z,12.50
2018-12-27T16:29:43.684Z,15.67
2018-12-27T16:32:12.162Z,12.00
2018-12-27T16:34:40.646Z,12.50
2018-12-27T16:37:09.383Z,27.17
2018-12-27T16:39:37.938Z,14.90
2018-12-27T16:42:06.432Z,13.37
2018-12-27T16:44:34.709Z,15.67
2018-12-27T16:47:03.224Z,16.00
2018-12-27T16:49:31.771Z,13.53
2018-12-27T16:52:00.321Z,10.27
2018-12-27T16:54:28.732Z,13.73
2018-12-27T16:56:57.297Z,16.10
2018-12-27T16:59:25.803Z,14.43
2018-12-27T17:01:54.336Z,16.03
2018-12-27T17:04:22.563Z,16.43
2018-12-27T17:06:51.068Z,14.30
2018-12-27T17:09:19.311Z,16.10
2018-12-27T17:11:47.796Z,22.20
2018-12-27T17:14:16.321Z,23.20
2018-12-27T17:16:44.506Z,22.73
2018-12-27T17:19:13.594Z,19.03
2018-12-27T17:21:41.786Z,20.00
2018-12-27T17:24:10.325Z,19.03
2018-12-27T17:26:38.775Z,21.93
2018-12-27T17:29:07.052Z,19.37
2018-12-27T17:31:35.559Z,16.77
2018-12-27T17:34:04.049Z,18.90
2018-12-27T17:36:32.565Z,12.47
2018-12-27T17:39:00.779Z,10.57
2018-12-27T17:41:29.279Z,14.23
2018-12-27T17:43:57.642Z,13.90
2018-12-27T17:46:26.300Z,14.20
2018-12-27T17:48:54.781Z,14.10
2018-12-27T17:51:23.245Z,14.70
2018-12-27T17:53:51.475Z,13.30
2018-12-27T17:56:19.944Z,14.97
2018-12-27T17:58:48.435Z,12.73
2018-12-27T18:01:16.846Z,13.00
2018-12-27T18:03:45.336Z,14.97
2018-12-27T18:06:13.570Z,14.73
2018-12-27T18:08:42.083Z,19.03
2018-12-27T18:11:10.313Z,13.50
2018-12-27T18:13:38.802Z,13.17
2018-12-27T18:16:07.117Z,9.43
2018-12-27T18:18:35.691Z,10.37
2018-12-27T18:21:04.213Z,10.90
2018-12-27T18:23:32.719Z,10.13
2018-12-27T18:26:02.821Z,12.70
2018-12-27T18:28:32.108Z,13.57
2018-12-27T18:31:00.583Z,62.87
2018-12-27T18:33:29.082Z,161.30
2018-12-27T18:35:57.376Z,202.20
2018-12-27T18:38:25.672Z,203.73
2018-12-27T18:40:54.290Z,150.77
2018-12-27T18:43:22.829Z,57.47
2018-12-27T18:45:51.311Z,45.80
2018-12-27T18:48:19.513Z,22.50
2018-12-27T18:50:47.991Z,34.53
2018-12-27T18:53:16.255Z,23.73
2018-12-27T18:55:45.069Z,17.23
2018-12-27T18:58:13.668Z,19.73
2018-12-27T19:00:42.200Z,22.70
2018-12-27T19:03:10.708Z,20.27
2018-12-27T19:05:38.909Z,22.17
2018-12-27T19:08:07.445Z,23.97
2018-12-27T19:10:35.968Z,21.97
2018-12-27T19:13:06.394Z,26.47
2018-12-27T19:15:37.882Z,14.03
2018-12-27T19:18:12.206Z,19.43
2018-12-27T19:20:43.108Z,16.87
2018-12-27T19:23:13.753Z,13.53
2018-12-27T19:25:42.216Z,13.10
2018-12-27T19:28:10.711Z,12.93
2018-12-27T19:30:39.323Z,16.70
2018-12-27T19:33:07.847Z,31.27
2018-12-27T19:35:38.004Z,23.63
2018-12-27T19:38:06.535Z,23.07
2018-12-27T19:40:34.758Z,16.80
2018-12-27T19:43:03.224Z,14.13
2018-12-27T19:45:31.742Z,19.87
2018-12-27T19:48:00.652Z,18.93
2018-12-27T19:50:29.159Z,22.80
2018-12-27T19:52:57.737Z,24.10
2018-12-27T19:55:26.778Z,22.23
2018-12-27T19:57:55.278Z,25.07
2018-12-27T20:00:23.786Z,28.20
2018-12-27T20:02:52.014Z,25.83
2018-12-27T20:05:20.302Z,20.27
2018-12-27T20:07:48.853Z,18.10
2018-12-27T20:10:17.347Z,15.27
2018-12-27T20:12:45.831Z,15.70
2018-12-27T20:15:14.098Z,16.30
2018-12-27T20:17:42.632Z,16.50
2018-12-27T20:20:13.548Z,17.47
2018-12-27T20:22:42.106Z,13.60
2018-12-27T20:25:10.321Z,18.17
2018-12-27T20:27:38.507Z,13.17
2018-12-27T20:30:08.554Z,13.60
2018-12-27T20:32:37.042Z,15.80
2018-12-27T20:35:05.890Z,14.60
2018-12-27T20:37:34.420Z,20.40
2018-12-27T20:40:03.478Z,22.60
2018-12-27T20:42:32.007Z,19.23
2018-12-27T20:45:00.614Z,18.70
2018-12-27T20:47:28.863Z,16.50
2018-12-27T20:49:57.366Z,15.80
2018-12-27T20:52:27.527Z,17.70
2018-12-27T20:54:55.737Z,19.87
2018-12-27T20:57:24.301Z,20.23
2018-12-27T20:59:52.788Z,18.17
2018-12-27T21:02:21.012Z,21.63
2018-12-27T21:04:49.504Z,17.73
2018-12-27T21:07:17.745Z,14.80
2018-12-27T21:09:46.415Z,15.87
2018-12-27T21:12:15.628Z,19.30
2018-12-27T21:14:44.706Z,19.60
2018-12-27T21:17:13.194Z,19.13
2018-12-27T21:19:41.782Z,20.13
2018-12-27T21:22:10.274Z,15.87
2018-12-27T21:24:38.798Z,16.90
2018-12-27T21:27:07.327Z,18.40
2018-12-27T21:29:35.796Z,21.50
2018-12-27T21:32:04.286Z,19.93
2018-12-27T21:34:33.011Z,23.80
2018-12-27T21:37:02.207Z,17.30
2018-12-27T21:39:30.427Z,17.60
2018-12-27T21:41:58.760Z,17.40
2018-12-27T21:44:27.276Z,22.13
2018-12-27T21:46:55.474Z,15.57
2018-12-27T21:49:24.055Z,14.00
2018-12-27T21:51:53.303Z,16.00
2018-12-27T21:54:21.559Z,16.53
2018-12-27T21:56:50.039Z,24.33
2018-12-27T21:59:18.591Z,23.50
2018-12-27T22:01:47.406Z,82.13
2018-12-27T22:04:17.545Z,87.70
2018-12-27T22:06:46.039Z,85.27
2018-12-27T22:09:14.295Z,67.43
2018-12-27T22:11:42.817Z,61.20
2018-12-27T22:14:11.079Z,45.93
2018-12-27T22:16:39.639Z,55.87
2018-12-27T22:19:08.141Z,60.70
2018-12-27T22:21:36.357Z,51.93
2018-12-27T22:24:04.863Z,48.50
2018-12-27T22:26:33.094Z,37.40
2018-12-27T22:29:01.606Z,30.03
2018-12-27T22:31:29.814Z,50.07
2018-12-27T22:33:58.129Z,67.17
2018-12-27T22:36:26.647Z,86.00
2018-12-27T22:38:55.141Z,155.97
2018-12-27T22:41:25.247Z,77.27
2018-12-27T22:43:53.714Z,41.40
2018-12-27T22:46:22.339Z,42.13
2018-12-27T22:48:50.595Z,37.40
2018-12-27T22:51:19.068Z,26.30
2018-12-27T22:53:47.571Z,24.37
2018-12-27T22:56:16.046Z,25.77
2018-12-27T22:58:44.534Z,20.70
2018-12-27T23:01:13.060Z,20.63
2018-12-27T23:03:41.581Z,19.50
2018-12-27T23:06:10.081Z,17.17
2018-12-27T23:08:43.088Z,13.67
2018-12-27T23:11:08.805Z,18.80
2018-12-27T23:13:37.066Z,23.00
2018-12-27T23:16:05.548Z,19.03
2018-12-27T23:18:34.062Z,16.40
2018-12-27T23:21:02.578Z,16.30
2018-12-27T23:23:31.534Z,15.23
2018-12-27T23:26:00.036Z,17.03
2018-12-27T23:28:28.566Z,29.17
2018-12-27T23:30:57.102Z,26.50
2018-12-27T23:33:25.656Z,17.57
2018-12-27T23:35:54.765Z,22.87
2018-12-27T23:38:23.247Z,24.97
2018-12-27T23:40:51.723Z,23.60
2018-12-27T23:43:20.228Z,21.00
2018-12-27T23:45:48.476Z,31.77
2018-12-27T23:48:16.970Z,22.13
2018-12-27T23:50:46.712Z,18.70
2018-12-27T23:53:15.238Z,22.30
2018-12-27T23:55:43.490Z,24.90
2018-12-27T23:58:11.928Z,23.37
